Terminal Aerodrome Forecast
Issued by NWS

Current Version | Previous Version | Text Only | Print | Product List | Glossary On
Versions: 1 2 3 4 5 6 7 8 9 10 11 12
000
FTPQ31 PGUM 242329
TAFGUM
TAF

TAF
PTKK 242329Z 2500/2524 02009KT P6SM VCSH FEW015 FEW030 SCT120
      TEMPO 2502/2505 VRB06KT 4SM SHRA SCT014 BKN030
     FM250600 08008KT P6SM VCSH SCT012 SCT030 BKN120=

USA.gov is the U.S. government's official web portal to all federal, state and local government web resources and services.